Time;durP1;ratioP1;P1;durP2;ratioP2;P2;SDS_P1;SDS_P2;PMS_P1;PMS_P2;Temp;Humidity;BMP_temperature;BMP_pressure;BME280_temperature;BME280_humidity;BME280_pressure;Samples;Min_cycle;Max_cycle;Signal;HPM_P1;HPM_P2
2022/12/17 13:06:30;;;;;;;106.80;73.78;;;1.20;99.90;;;;;;4974031;28;20046;-75
2022/12/17 13:09:15;;;;;;;42.45;39.35;;;1.30;99.90;;;;;;4983196;28;20047;-75
2022/12/17 13:11:48;;;;;;;41.72;38.78;;;1.30;99.90;;;;;;4975456;28;20054;-76
2022/12/17 13:14:26;;;;;;;41.70;38.95;;;1.30;99.90;;;;;;4960968;28;20168;-76
2022/12/17 13:17:00;;;;;;;38.20;35.60;;;1.30;99.90;;;;;;4978234;28;20522;-76
2022/12/17 13:19:30;;;;;;;37.50;35.10;;;1.30;99.90;;;;;;4972353;28;20217;-75
2022/12/17 13:22:15;;;;;;;38.80;36.42;;;1.30;99.90;;;;;;4958969;28;20066;-73
2022/12/17 13:25:07;;;;;;;38.33;35.90;;;1.10;99.90;;;;;;4961158;28;20053;-73
2022/12/17 13:27:34;;;;;;;36.47;34.28;;;1.00;99.90;;;;;;4974594;28;20053;-76
2022/12/17 13:30:34;;;;;;;40.95;38.17;;;1.00;99.90;;;;;;4956422;28;20046;-77
2022/12/17 13:33:37;;;;;;;38.30;35.95;;;1.10;99.90;;;;;;4949640;28;20046;-77
2022/12/17 13:36:35;;;;;;;36.53;34.10;;;1.00;99.90;;;;;;4973283;28;20045;-74
2022/12/17 13:39:28;;;;;;;41.15;38.05;;;0.90;99.90;;;;;;4974252;28;20759;-75
2022/12/17 13:41:56;;;;;;;42.35;38.88;;;0.80;99.90;;;;;;4960987;28;20043;-75
2022/12/17 13:44:28;;;;;;;40.30;37.72;;;0.70;99.90;;;;;;4959945;28;20235;-76
2022/12/17 13:46:55;;;;;;;44.05;40.85;;;0.60;99.90;;;;;;4978509;28;20688;-76
2022/12/17 13:49:27;;;;;;;40.28;37.38;;;0.50;99.90;;;;;;4975801;28;20042;-75
2022/12/17 13:52:05;;;;;;;41.25;38.05;;;0.50;99.90;;;;;;4962230;28;20038;-74
2022/12/17 13:54:38;;;;;;;44.40;41.03;;;0.40;99.90;;;;;;4974085;28;20046;-74
2022/12/17 13:57:22;;;;;;;49.70;46.55;;;0.40;99.90;;;;;;4984943;28;20054;-73
2022/12/17 13:59:54;;;;;;;51.35;48.00;;;0.20;99.90;;;;;;4977595;28;20141;-75
2022/12/17 14:02:28;;;;;;;49.28;46.05;;;0.20;99.90;;;;;;4978335;28;20112;-76
2022/12/17 14:04:58;;;;;;;51.28;47.42;;;0.20;99.90;;;;;;4975304;28;20050;-74
2022/12/17 14:07:37;;;;;;;55.83;51.03;;;0.10;99.90;;;;;;4978106;28;20137;-75
2022/12/17 14:10:04;;;;;;;54.45;50.42;;;0.10;99.90;;;;;;4973752;28;20133;-75
2022/12/17 14:12:34;;;;;;;50.15;47.05;;;0.00;99.90;;;;;;4977881;28;20042;-76
2022/12/17 14:15:09;;;;;;;50.83;47.13;;;-0.10;99.90;;;;;;4960005;28;20034;-75
2022/12/17 14:17:41;;;;;;;54.10;50.75;;;-0.20;99.90;;;;;;4962069;28;20097;-75
2022/12/17 14:20:13;;;;;;;56.50;52.75;;;-0.20;99.90;;;;;;4975064;28;20042;-75
2022/12/17 14:22:46;;;;;;;57.85;53.40;;;-0.20;99.90;;;;;;4977033;28;20056;-75
2022/12/17 14:25:22;;;;;;;63.72;58.15;;;-0.30;99.90;;;;;;4976581;28;20049;-76
2022/12/17 14:28:00;;;;;;;66.32;60.17;;;-0.40;99.90;;;;;;4962099;28;20105;-75
2022/12/17 14:30:34;;;;;;;54.63;50.67;;;-0.50;99.90;;;;;;4977100;28;20133;-76
2022/12/17 14:33:01;;;;;;;56.35;51.97;;;-0.60;99.90;;;;;;4976257;28;20073;-75
2022/12/17 14:35:34;;;;;;;51.70;48.15;;;-0.70;99.90;;;;;;4978446;28;20030;-76
2022/12/17 14:38:02;;;;;;;56.63;52.53;;;-0.70;99.90;;;;;;4976625;28;20082;-76
2022/12/17 14:40:29;;;;;;;52.20;47.97;;;-0.70;99.90;;;;;;4963681;28;20050;-76
2022/12/17 14:43:00;;;;;;;52.10;48.20;;;-0.80;99.90;;;;;;4970255;28;20069;-76
2022/12/17 14:45:28;;;;;;;50.40;46.72;;;-0.80;99.90;;;;;;4986312;28;20068;-76
2022/12/17 14:47:57;;;;;;;48.10;44.70;;;-0.90;99.90;;;;;;4959995;28;20072;-75
2022/12/17 14:50:29;;;;;;;42.58;38.97;;;-1.10;99.90;;;;;;4971918;28;20077;-75
2022/12/17 14:52:59;;;;;;;44.90;41.15;;;-1.20;99.90;;;;;;4976737;28;20562;-76
2022/12/17 14:55:54;;;;;;;44.40;40.42;;;-1.20;99.90;;;;;;4961330;28;20081;-75
2022/12/17 14:58:23;;;;;;;;;;;-1.30;99.90;;;;;;4961457;28;20138;-75
2022/12/17 15:00:58;;;;;;;45.78;41.72;;;-1.40;99.90;;;;;;4958083;28;19932;-74
2022/12/17 15:03:32;;;;;;;46.80;41.83;;;-1.40;99.90;;;;;;4973870;28;20054;-76
2022/12/17 15:06:05;;;;;;;52.47;43.42;;;-1.50;99.90;;;;;;4987395;28;20034;-74
2022/12/17 15:08:40;;;;;;;52.53;46.78;;;-1.60;99.90;;;;;;4976463;28;20053;-76
2022/12/17 15:11:09;;;;;;;50.00;44.63;;;-1.70;99.90;;;;;;4972695;28;20042;-75
2022/12/17 15:13:36;;;;;;;56.15;50.80;;;-1.80;99.90;;;;;;4956833;28;20125;-74
2022/12/17 15:16:03;;;;;;;133.27;75.88;;;-1.90;99.90;;;;;;4976280;28;20160;-75
2022/12/17 15:18:30;;;;;;;68.15;46.55;;;-2.00;99.90;;;;;;4977837;28;20043;-75
2022/12/17 15:20:57;;;;;;;51.78;41.50;;;-2.10;99.90;;;;;;4959015;28;20050;-76
2022/12/17 15:23:24;;;;;;;63.53;51.67;;;-2.20;99.90;;;;;;4954951;28;20046;-77
2022/12/17 15:25:52;;;;;;;57.95;46.38;;;-2.20;99.90;;;;;;4965794;28;20472;-75
2022/12/17 15:28:20;;;;;;;49.17;41.58;;;-2.40;99.90;;;;;;4980348;28;20522;-75
2022/12/17 15:30:48;;;;;;;44.05;36.20;;;-2.50;99.90;;;;;;4961670;28;20050;-75
2022/12/17 15:33:15;;;;;;;68.25;47.40;;;-2.50;99.90;;;;;;4960947;28;20057;-76
2022/12/17 15:35:42;;;;;;;108.93;63.65;;;-2.60;99.90;;;;;;4960945;28;20058;-76
2022/12/17 15:38:10;;;;;;;64.97;52.15;;;-2.70;99.90;;;;;;4980703;28;20053;-75
2022/12/17 15:40:38;;;;;;;50.97;42.42;;;-2.70;99.90;;;;;;4961267;28;20121;-75
2022/12/17 15:43:10;;;;;;;49.83;41.35;;;-2.80;99.90;;;;;;4958230;28;20089;-75
2022/12/17 15:45:43;;;;;;;59.72;52.42;;;-2.80;99.90;;;;;;4977205;28;20042;-75
2022/12/17 15:48:15;;;;;;;53.15;45.55;;;-3.00;99.90;;;;;;4975139;28;20781;-75
2022/12/17 15:50:42;;;;;;;507.98;285.77;;;-3.10;99.90;;;;;;4959867;28;20046;-75
2022/12/17 15:53:09;;;;;;;52.58;44.33;;;-3.10;99.90;;;;;;4976418;28;20093;-74
2022/12/17 15:55:36;;;;;;;42.78;37.70;;;-3.20;99.90;;;;;;4978179;28;20062;-75
2022/12/17 15:58:04;;;;;;;81.15;55.45;;;-3.20;99.90;;;;;;4982923;28;20050;-74
2022/12/17 16:00:31;;;;;;;59.47;41.63;;;-3.20;99.90;;;;;;4966598;28;20050;-75
2022/12/17 16:02:58;;;;;;;56.08;42.80;;;-3.30;99.90;;;;;;4983072;28;20054;-79
2022/12/17 16:05:25;;;;;;;69.95;50.80;;;-3.30;99.90;;;;;;4982384;28;20056;-76
2022/12/17 16:07:52;;;;;;;54.63;42.83;;;-3.40;99.90;;;;;;4984455;28;20038;-75
2022/12/17 16:10:18;;;;;;;54.30;40.92;;;-3.50;99.90;;;;;;4983648;28;20096;-77
2022/12/17 16:12:45;;;;;;;58.47;41.25;;;-3.60;99.90;;;;;;4993446;28;20076;-75
2022/12/17 16:15:13;;;;;;;47.38;38.47;;;-3.70;99.90;;;;;;4983200;28;20163;-76
2022/12/17 16:17:40;;;;;;;52.85;41.33;;;-3.80;99.90;;;;;;4966518;28;20054;-75
2022/12/17 16:20:07;;;;;;;58.92;42.88;;;-3.80;99.90;;;;;;4983973;28;20076;-75
2022/12/17 16:22:34;;;;;;;48.75;40.78;;;-3.90;99.90;;;;;;4969090;28;20042;-76
2022/12/17 16:25:01;;;;;;;53.33;38.58;;;-4.00;99.90;;;;;;4966903;28;20054;-77
2022/12/17 16:27:27;;;;;;;60.33;42.60;;;-4.10;99.90;;;;;;4978419;28;20068;-77
2022/12/17 16:29:54;;;;;;;55.10;41.13;;;-4.20;99.90;;;;;;4962751;28;20492;-76
2022/12/17 16:32:21;;;;;;;59.38;43.38;;;-4.30;99.90;;;;;;4968163;28;20038;-76
2022/12/17 16:34:47;;;;;;;57.80;41.75;;;-4.40;99.90;;;;;;4987477;28;20050;-76
2022/12/17 16:37:14;;;;;;;64.30;45.15;;;-4.60;99.90;;;;;;4967439;28;20062;-75
2022/12/17 16:39:41;;;;;;;67.13;45.42;;;-4.60;99.90;;;;;;4983473;28;20038;-75
2022/12/17 16:42:08;;;;;;;77.40;53.00;;;-4.60;99.90;;;;;;4982093;28;20439;-76
2022/12/17 16:44:34;;;;;;;86.35;58.20;;;-4.50;99.90;;;;;;4986113;28;20050;-78
2022/12/17 16:47:03;;;;;;;94.68;62.15;;;-4.50;99.90;;;;;;4982265;28;20042;-78
2022/12/17 16:49:29;;;;;;;84.15;54.83;;;-4.60;99.90;;;;;;4968735;28;20043;-75
2022/12/17 16:51:56;;;;;;;87.60;57.00;;;-4.70;99.90;;;;;;4980794;28;20046;-74
2022/12/17 16:54:25;;;;;;;76.80;51.78;;;-4.70;99.90;;;;;;4967518;28;20057;-74
2022/12/17 16:56:53;;;;;;;76.93;52.13;;;-4.90;99.90;;;;;;4981495;28;20042;-75
2022/12/17 16:59:20;;;;;;;81.30;49.97;;;-5.00;99.90;;;;;;4988130;28;20099;-76
2022/12/17 17:01:49;;;;;;;80.68;52.72;;;-5.10;99.90;;;;;;4972240;28;20085;-75
2022/12/17 17:04:19;;;;;;;70.43;49.22;;;-5.10;99.90;;;;;;4984081;28;20042;-74
2022/12/17 17:06:48;;;;;;;75.20;49.83;;;-5.20;99.90;;;;;;4980660;28;20699;-76
2022/12/17 17:09:16;;;;;;;79.72;51.88;;;-5.20;99.90;;;;;;4982511;28;20050;-75
2022/12/17 17:11:43;;;;;;;93.00;60.47;;;-5.20;99.90;;;;;;4966584;28;20172;-77
2022/12/17 17:14:17;;;;;;;95.97;63.15;;;-5.30;99.90;;;;;;4959584;28;20507;-76
2022/12/17 17:16:44;;;;;;;107.75;69.85;;;-5.20;99.90;;;;;;4985802;28;20516;-75
2022/12/17 17:19:10;;;;;;;99.90;64.90;;;-5.20;99.90;;;;;;4971781;28;20042;-76
2022/12/17 17:21:39;;;;;;;97.95;76.68;;;-5.20;99.90;;;;;;4971671;28;20046;-75
2022/12/17 17:24:08;;;;;;;112.90;68.88;;;-5.20;99.90;;;;;;4970329;28;20061;-76
2022/12/17 17:26:35;;;;;;;112.60;73.38;;;-5.20;99.90;;;;;;4988102;28;20440;-75
2022/12/17 17:29:04;;;;;;;111.18;68.50;;;-5.30;99.90;;;;;;4971075;28;20145;-75
2022/12/17 17:31:31;;;;;;;99.80;64.32;;;-5.40;99.90;;;;;;4984539;28;20046;-76
2022/12/17 17:34:18;;;;;;;92.10;60.13;;;-5.40;99.90;;;;;;5006413;28;20058;-75
2022/12/17 17:36:44;;;;;;;136.93;71.03;;;-5.50;99.90;;;;;;4970083;28;20133;-76
2022/12/17 17:39:11;;;;;;;136.35;71.88;;;-5.60;99.90;;;;;;4967419;28;20081;-77
2022/12/17 17:41:38;;;;;;;121.55;66.40;;;-5.80;99.90;;;;;;4985725;28;20545;-75
2022/12/17 17:44:07;;;;;;;139.77;70.85;;;-5.90;99.90;;;;;;4972067;28;20068;-75
2022/12/17 17:46:34;;;;;;;147.65;79.78;;;-5.80;99.90;;;;;;4988151;28;20046;-76
2022/12/17 17:49:04;;;;;;;155.52;79.63;;;-5.80;99.90;;;;;;4987822;28;20054;-76
2022/12/17 17:51:33;;;;;;;137.93;76.90;;;-5.70;99.90;;;;;;4987356;28;20038;-76
2022/12/17 17:54:20;;;;;;;149.25;81.05;;;-5.80;99.90;;;;;;4987956;28;20046;-75
2022/12/17 17:56:47;;;;;;;175.68;88.22;;;-5.90;99.90;;;;;;4987231;28;20046;-75
2022/12/17 17:59:17;;;;;;;151.02;78.95;;;-6.00;99.90;;;;;;4988806;28;20133;-75
2022/12/17 18:01:48;;;;;;;119.60;67.28;;;-5.90;99.90;;;;;;4993565;28;20602;-74
2022/12/17 18:04:18;;;;;;;108.88;62.65;;;-5.80;99.90;;;;;;4988774;28;20136;-75
2022/12/17 18:06:45;;;;;;;116.15;60.83;;;-5.90;99.90;;;;;;4971446;28;20044;-75
2022/12/17 18:09:32;;;;;;;106.65;60.25;;;-6.10;99.90;;;;;;4984867;28;20038;-76
2022/12/17 18:13:53;;;;;;;114.53;64.10;;;-6.20;99.90;;;;;;4987693;28;20038;-76
2022/12/17 18:14:45;;;;;;;87.55;54.50;;;-6.20;99.90;;;;;;4989681;28;20046;-77
2022/12/17 18:17:32;;;;;;;87.68;51.92;;;-6.30;99.90;;;;;;4977523;28;20042;-76
2022/12/17 18:19:59;;;;;;;77.18;46.63;;;-6.20;99.90;;;;;;4974495;28;20836;-75
2022/12/17 18:22:27;;;;;;;79.25;50.00;;;-6.00;99.90;;;;;;4985304;28;20050;-75
2022/12/17 18:24:53;;;;;;;87.18;49.13;;;-5.80;99.90;;;;;;4986862;28;20058;-75
2022/12/17 18:27:20;;;;;;;68.88;41.63;;;-5.70;99.90;;;;;;4987172;28;20038;-74
2022/12/17 18:29:47;;;;;;;72.63;42.63;;;-5.80;99.90;;;;;;4968833;28;20746;-73
2022/12/17 18:32:14;;;;;;;69.15;40.22;;;-5.80;99.90;;;;;;4968960;28;20404;-76
2022/12/17 18:34:40;;;;;;;61.10;39.10;;;-5.90;99.90;;;;;;4985319;28;20606;-74
2022/12/17 18:37:09;;;;;;;63.28;39.47;;;-5.70;99.90;;;;;;4967135;28;20319;-76
2022/12/17 18:39:36;;;;;;;70.35;42.90;;;-5.70;99.90;;;;;;4969180;28;20097;-76
2022/12/17 18:44:48;;;;;;;58.42;39.13;;;-5.80;99.90;;;;;;4986015;28;20060;-75
2022/12/17 18:47:15;;;;;;;54.65;36.38;;;-5.70;99.90;;;;;;4971702;28;20111;-74
2022/12/17 18:49:42;;;;;;;59.95;33.05;;;-5.70;99.90;;;;;;4968582;28;20755;-76
2022/12/17 18:52:09;;;;;;;51.80;32.22;;;-5.70;99.90;;;;;;4984252;28;20057;-74
2022/12/17 18:54:42;;;;;;;54.08;32.65;;;-5.70;99.90;;;;;;4979387;28;20121;-76
2022/12/17 18:57:08;;;;;;;53.97;33.08;;;-5.60;99.90;;;;;;5009014;23;20407;-71
2022/12/17 18:59:36;;;;;;;49.58;32.92;;;-5.60;99.90;;;;;;5023101;28;20484;-72
2022/12/17 19:02:03;;;;;;;52.10;33.03;;;-5.60;99.90;;;;;;5009319;28;20135;-72
2022/12/17 19:04:31;;;;;;;51.45;34.65;;;-5.60;99.90;;;;;;5032891;28;20033;-71
2022/12/17 19:06:59;;;;;;;53.13;35.92;;;-5.80;99.90;;;;;;5015665;28;20150;-71
2022/12/17 19:09:29;;;;;;;53.25;33.78;;;-6.10;99.90;;;;;;5014549;28;20045;-72
2022/12/17 19:11:56;;;;;;;55.05;35.33;;;-6.30;99.90;;;;;;5018130;28;20072;-72
2022/12/17 19:14:24;;;;;;;50.33;33.35;;;-6.30;99.90;;;;;;5014168;28;20070;-71
2022/12/17 19:16:52;;;;;;;56.60;39.90;;;-6.20;99.90;;;;;;5020271;28;20237;-71
2022/12/17 19:19:20;;;;;;;102.82;58.55;;;-6.20;99.90;;;;;;5011717;28;20633;-71
2022/12/17 19:21:47;;;;;;;108.55;61.65;;;-6.00;99.90;;;;;;5016503;28;20237;-72
2022/12/17 19:24:16;;;;;;;70.65;42.08;;;-6.00;99.90;;;;;;5012950;28;20036;-73
2022/12/17 19:26:44;;;;;;;51.67;38.33;;;-5.90;99.90;;;;;;5016437;28;20047;-70
2022/12/17 19:29:12;;;;;;;56.85;36.92;;;-6.00;99.90;;;;;;5009823;28;20061;-73
2022/12/17 19:31:39;;;;;;;61.75;39.13;;;-5.90;99.90;;;;;;5017004;28;20220;-73
2022/12/17 19:34:10;;;;;;;57.53;37.50;;;-6.00;99.90;;;;;;5012157;28;20075;-73
2022/12/17 19:36:38;;;;;;;71.28;42.42;;;-5.90;99.90;;;;;;5018663;28;20045;-73
2022/12/17 19:39:08;;;;;;;87.30;48.00;;;-6.00;99.90;;;;;;5010349;28;20563;-71
2022/12/17 19:41:34;;;;;;;59.05;40.60;;;-6.10;99.90;;;;;;5019004;28;20620;-70
2022/12/17 19:44:04;;;;;;;63.60;39.58;;;-6.00;99.90;;;;;;4998413;28;20055;-70
2022/12/17 19:46:33;;;;;;;61.17;39.05;;;-6.20;99.90;;;;;;5015009;28;20084;-73
2022/12/17 19:49:00;;;;;;;62.13;38.40;;;-6.30;99.90;;;;;;5016290;28;20596;-70
2022/12/17 19:51:29;;;;;;;58.17;36.05;;;-6.20;99.90;;;;;;5044614;28;20040;-70
2022/12/17 19:53:56;;;;;;;66.30;40.67;;;-6.20;99.90;;;;;;5016022;28;20402;-73
2022/12/17 19:56:30;;;;;;;54.05;35.92;;;-6.30;99.90;;;;;;5034152;28;20067;-73
2022/12/17 19:59:03;;;;;;;60.53;38.20;;;-6.00;99.90;;;;;;5015614;28;20114;-72
2022/12/17 20:01:32;;;;;;;55.75;36.42;;;-5.90;99.90;;;;;;5000149;28;20041;-72
2022/12/17 20:03:59;;;;;;;66.43;41.40;;;-5.80;99.90;;;;;;5015089;28;20506;-72
2022/12/17 20:06:30;;;;;;;61.95;39.72;;;-5.80;99.90;;;;;;5003295;28;20040;-72
2022/12/17 20:08:57;;;;;;;64.78;38.33;;;-5.80;99.90;;;;;;5016952;28;20041;-72
2022/12/17 20:11:33;;;;;;;69.43;39.97;;;-5.80;99.90;;;;;;5023962;28;20033;-71
2022/12/17 20:14:14;;;;;;;60.47;35.50;;;-5.80;99.90;;;;;;5011231;28;20118;-72
2022/12/17 20:16:53;;;;;;;56.75;35.42;;;-5.70;99.90;;;;;;5015096;28;20041;-72
2022/12/17 20:19:23;;;;;;;50.17;32.63;;;-5.70;99.90;;;;;;5013158;28;20762;-72
2022/12/17 20:21:51;;;;;;;47.15;33.92;;;-5.70;99.90;;;;;;5011966;28;20130;-72
2022/12/17 20:24:18;;;;;;;51.75;34.42;;;-5.80;99.90;;;;;;5012452;28;20041;-72
2022/12/17 20:26:47;;;;;;;69.95;43.40;;;-5.80;99.90;;;;;;5017470;28;20101;-72
2022/12/17 20:29:14;;;;;;;40.78;30.67;;;-5.80;99.90;;;;;;5013426;28;20041;-72
2022/12/17 20:31:41;;;;;;;29.80;25.65;;;-5.80;99.90;;;;;;5016614;28;20055;-71
2022/12/17 20:34:16;;;;;;;34.20;26.42;;;-5.90;99.90;;;;;;5011657;28;20062;-72
2022/12/17 20:36:43;;;;;;;34.83;27.00;;;-5.80;99.90;;;;;;5014352;28;20214;-71
2022/12/17 20:39:13;;;;;;;42.30;29.98;;;-6.00;99.90;;;;;;5005445;28;20719;-72
2022/12/17 20:41:40;;;;;;;55.72;37.60;;;-6.20;99.90;;;;;;5014739;28;20044;-71
2022/12/17 20:44:11;;;;;;;56.72;37.70;;;-6.40;99.90;;;;;;5011084;28;20045;-72
2022/12/17 20:46:40;;;;;;;86.05;52.97;;;-6.50;99.90;;;;;;5018309;28;20204;-72
2022/12/17 20:49:07;;;;;;;130.52;80.22;;;-6.70;99.90;;;;;;5011541;28;20121;-72
2022/12/17 20:51:33;;;;;;;70.47;47.28;;;-6.70;99.90;;;;;;5013501;28;20061;-71
2022/12/17 20:54:01;;;;;;;53.85;40.33;;;-6.60;99.90;;;;;;5010280;28;20509;-71
2022/12/17 20:56:32;;;;;;;49.42;34.35;;;-6.60;99.90;;;;;;5013341;28;20416;-71
2022/12/17 20:59:13;;;;;;;48.97;34.53;;;-6.60;99.90;;;;;;5015307;28;20058;-71
2022/12/17 21:01:40;;;;;;;55.13;42.70;;;-6.60;99.90;;;;;;5013449;28;20572;-71
2022/12/17 21:04:07;;;;;;;50.30;36.58;;;-6.60;99.90;;;;;;5011394;28;20029;-71
2022/12/17 21:06:45;;;;;;;44.78;33.40;;;-6.60;99.90;;;;;;5016268;28;20096;-71
2022/12/17 21:09:14;;;;;;;42.22;31.42;;;-6.70;99.90;;;;;;5007121;28;20571;-70
2022/12/17 21:11:41;;;;;;;42.78;33.65;;;-6.70;99.90;;;;;;5016076;28;20052;-69
2022/12/17 21:14:11;;;;;;;45.67;32.97;;;-6.50;99.90;;;;;;5010587;28;20108;-69
2022/12/17 21:16:38;;;;;;;43.72;34.72;;;-6.40;99.90;;;;;;5015889;28;20319;-69
2022/12/17 21:19:08;;;;;;;48.35;35.30;;;-6.40;99.90;;;;;;5009995;28;20044;-69
2022/12/17 21:21:36;;;;;;;50.78;31.60;;;-6.40;99.90;;;;;;5015708;28;20056;-69
2022/12/17 21:24:04;;;;;;;41.47;31.73;;;-6.40;99.90;;;;;;5010798;28;20051;-69
2022/12/17 21:26:36;;;;;;;49.95;32.83;;;-6.30;99.90;;;;;;5015659;28;20041;-72
2022/12/17 21:29:04;;;;;;;56.22;35.30;;;-6.20;99.90;;;;;;5010595;28;20304;-71
2022/12/17 21:31:39;;;;;;;57.53;34.55;;;-6.20;99.90;;;;;;5015988;28;20408;-71
2022/12/17 21:34:10;;;;;;;52.58;31.92;;;-6.30;99.90;;;;;;5011729;28;20291;-69
2022/12/17 21:36:38;;;;;;;40.90;31.23;;;-6.20;99.90;;;;;;5020260;28;20319;-71
2022/12/17 21:39:07;;;;;;;55.05;35.67;;;-6.20;99.90;;;;;;5010078;28;20132;-71
2022/12/17 21:41:37;;;;;;;57.22;35.90;;;-6.60;99.90;;;;;;5011956;28;20428;-72
2022/12/17 21:44:06;;;;;;;44.75;34.78;;;-6.80;99.90;;;;;;5006382;28;20049;-71
2022/12/17 21:46:33;;;;;;;54.08;37.25;;;-7.00;99.90;;;;;;5014945;28;20048;-70
2022/12/17 21:49:02;;;;;;;54.85;38.60;;;-7.00;99.90;;;;;;5010258;28;20445;-70
2022/12/17 21:51:30;;;;;;;53.42;37.65;;;-7.00;99.90;;;;;;5012889;28;20041;-69
2022/12/17 21:53:59;;;;;;;50.28;36.50;;;-7.00;99.90;;;;;;5015136;28;20044;-71
2022/12/17 21:56:27;;;;;;;56.53;38.50;;;-7.00;99.90;;;;;;5011910;28;20998;-69
2022/12/17 21:58:59;;;;;;;50.13;37.00;;;-6.90;99.90;;;;;;5016207;28;20524;-69
2022/12/17 22:01:30;;;;;;;54.03;35.00;;;-6.90;99.90;;;;;;5014039;28;20146;-70
2022/12/17 22:03:59;;;;;;;55.28;32.63;;;-6.80;99.90;;;;;;5022646;28;20160;-70
2022/12/17 22:06:28;;;;;;;38.53;30.70;;;-6.90;99.90;;;;;;5018621;28;20608;-69
2022/12/17 22:09:08;;;;;;;44.08;31.25;;;-6.90;99.90;;;;;;5015922;28;20053;-69
2022/12/17 22:14:01;;;;;;;43.33;31.48;;;-7.00;99.90;;;;;;5005173;28;20041;-69
2022/12/17 22:14:42;;;;;;;48.42;33.55;;;-7.10;99.90;;;;;;5020054;28;20052;-69
2022/12/17 22:17:08;;;;;;;50.70;33.85;;;-7.20;99.90;;;;;;5012433;28;20180;-69
2022/12/17 22:19:35;;;;;;;53.83;35.67;;;-7.10;99.90;;;;;;5021495;28;20045;-70
2022/12/17 22:22:02;;;;;;;45.97;35.25;;;-7.10;99.90;;;;;;5015251;28;20196;-69
2022/12/17 22:24:28;;;;;;;52.67;34.63;;;-7.10;99.90;;;;;;5001677;28;20045;-70
2022/12/17 22:27:02;;;;;;;52.47;34.35;;;-7.00;99.90;;;;;;5016865;28;20037;-70
2022/12/17 22:35:00;;;;;;;45.38;32.45;;;-7.30;99.90;;;;;;5021299;28;21250;-70
2022/12/17 22:37:47;;;;;;;45.20;31.50;;;-7.50;99.90;;;;;;5020188;28;20057;-69
2022/12/17 22:40:37;;;;;;;44.28;31.52;;;-7.60;99.90;;;;;;5018243;28;20350;-69
2022/12/17 22:43:30;;;;;;;41.75;32.97;;;-7.60;99.90;;;;;;5013495;28;20497;-69
2022/12/17 22:46:17;;;;;;;52.70;34.42;;;-7.60;99.90;;;;;;5009768;28;20049;-69
2022/12/17 22:48:44;;;;;;;67.65;40.33;;;-7.70;99.90;;;;;;5018193;28;20126;-70
2022/12/17 22:51:12;;;;;;;63.05;40.10;;;-7.70;99.90;;;;;;5010890;28;20569;-70
2022/12/17 22:54:04;;;;;;;55.08;36.88;;;-7.70;99.90;;;;;;5016072;28;20130;-69
2022/12/17 22:56:35;;;;;;;44.55;34.67;;;-7.70;99.90;;;;;;5044061;28;20049;-69
2022/12/17 22:59:22;;;;;;;50.95;35.03;;;-7.80;99.90;;;;;;5010564;28;20037;-69
2022/12/17 23:01:48;;;;;;;51.35;34.40;;;-7.80;99.90;;;;;;5014829;28;20037;-69
2022/12/17 23:04:15;;;;;;;63.08;40.08;;;-7.80;99.90;;;;;;5013199;28;20045;-69
2022/12/17 23:06:44;;;;;;;59.22;36.40;;;-7.70;99.90;;;;;;5003094;28;20048;-69
2022/12/17 23:09:17;;;;;;;54.50;35.80;;;-7.70;99.90;;;;;;5013963;28;20040;-69
2022/12/17 23:11:46;;;;;;;49.50;34.08;;;-7.80;99.90;;;;;;5017662;28;20239;-70
2022/12/17 23:14:12;;;;;;;46.35;31.42;;;-7.70;99.90;;;;;;5011436;28;20042;-70
2022/12/17 23:16:40;;;;;;;55.42;35.22;;;-7.70;99.90;;;;;;5017585;28;20247;-69
2022/12/17 23:19:07;;;;;;;53.70;33.50;;;-7.60;99.90;;;;;;5008578;28;20231;-68
2022/12/17 23:21:34;;;;;;;60.50;34.55;;;-7.70;99.90;;;;;;5015135;28;20134;-69
2022/12/17 23:24:01;;;;;;;48.03;30.67;;;-7.60;99.90;;;;;;4996043;28;20067;-69
2022/12/17 23:26:30;;;;;;;53.88;32.63;;;-7.70;99.90;;;;;;5019078;28;20131;-70
2022/12/17 23:29:00;;;;;;;57.50;33.90;;;-7.60;99.90;;;;;;5019756;28;20052;-69
2022/12/17 23:31:31;;;;;;;56.67;32.97;;;-7.60;99.90;;;;;;5017731;28;20052;-70
2022/12/17 23:33:58;;;;;;;59.22;33.00;;;-7.50;99.90;;;;;;5019185;28;20053;-70
2022/12/17 23:36:26;;;;;;;53.60;33.33;;;-7.60;99.90;;;;;;5011017;28;20039;-70
2022/12/17 23:38:55;;;;;;;58.25;33.40;;;-7.60;99.90;;;;;;5017184;28;20695;-69
2022/12/17 23:41:24;;;;;;;51.90;32.45;;;-7.70;99.90;;;;;;5007474;28;20657;-69
2022/12/17 23:43:51;;;;;;;55.97;35.03;;;-7.60;99.90;;;;;;5023115;28;20044;-69
2022/12/17 23:46:19;;;;;;;62.75;36.70;;;-7.70;99.90;;;;;;5010289;28;20299;-69
2022/12/17 23:48:47;;;;;;;58.05;34.03;;;-7.70;99.90;;;;;;5003849;28;20045;-68
2022/12/17 23:51:16;;;;;;;49.13;31.55;;;-7.60;99.90;;;;;;5007322;28;20049;-69
2022/12/17 23:53:43;;;;;;;55.55;32.35;;;-7.60;99.90;;;;;;5017281;28;20053;-68
2022/12/17 23:56:19;;;;;;;50.38;30.25;;;-7.60;99.90;;;;;;5012899;28;20059;-69
2022/12/17 23:58:47;;;;;;;45.47;30.45;;;-7.70;99.90;;;;;;5015449;28;20049;-69
